sensor_id;sensor_type;location;lat;lon;timestamp;temperature;humidity
17726;DHT22;8983;53.156;17.960;2023-04-23T00:02:26;12.60;84.80
17726;DHT22;8983;53.156;17.960;2023-04-23T00:04:56;12.60;85.00
17726;DHT22;8983;53.156;17.960;2023-04-23T00:07:29;12.50;84.90
17726;DHT22;8983;53.156;17.960;2023-04-23T00:09:59;12.50;85.20
17726;DHT22;8983;53.156;17.960;2023-04-23T00:12:31;12.50;85.10
17726;DHT22;8983;53.156;17.960;2023-04-23T00:15:01;12.50;85.10
17726;DHT22;8983;53.156;17.960;2023-04-23T00:17:29;12.40;85.30
17726;DHT22;8983;53.156;17.960;2023-04-23T00:19:58;12.40;85.50
17726;DHT22;8983;53.156;17.960;2023-04-23T00:22:26;12.40;85.50
17726;DHT22;8983;53.156;17.960;2023-04-23T00:24:54;12.30;85.40
17726;DHT22;8983;53.156;17.960;2023-04-23T00:27:22;12.30;85.50
17726;DHT22;8983;53.156;17.960;2023-04-23T00:29:51;12.20;85.50
17726;DHT22;8983;53.156;17.960;2023-04-23T00:32:19;12.20;85.70
17726;DHT22;8983;53.156;17.960;2023-04-23T00:34:48;12.10;85.70
17726;DHT22;8983;53.156;17.960;2023-04-23T00:37:16;12.10;85.80
17726;DHT22;8983;53.156;17.960;2023-04-23T00:39:44;12.10;86.00
17726;DHT22;8983;53.156;17.960;2023-04-23T00:42:12;12.10;86.20
17726;DHT22;8983;53.156;17.960;2023-04-23T00:44:43;12.00;86.30
17726;DHT22;8983;53.156;17.960;2023-04-23T00:47:13;12.00;86.50
17726;DHT22;8983;53.156;17.960;2023-04-23T00:49:42;12.00;86.70
17726;DHT22;8983;53.156;17.960;2023-04-23T00:52:11;12.00;86.90
17726;DHT22;8983;53.156;17.960;2023-04-23T00:54:39;12.00;87.00
17726;DHT22;8983;53.156;17.960;2023-04-23T00:57:08;12.00;86.80
17726;DHT22;8983;53.156;17.960;2023-04-23T00:59:36;11.90;86.70
17726;DHT22;8983;53.156;17.960;2023-04-23T01:02:04;11.90;86.70
17726;DHT22;8983;53.156;17.960;2023-04-23T01:04:34;11.80;86.70
17726;DHT22;8983;53.156;17.960;2023-04-23T01:07:04;11.80;86.80
17726;DHT22;8983;53.156;17.960;2023-04-23T01:09:33;11.80;87.00
17726;DHT22;8983;53.156;17.960;2023-04-23T01:12:03;11.70;87.00
17726;DHT22;8983;53.156;17.960;2023-04-23T01:14:32;11.70;87.10
17726;DHT22;8983;53.156;17.960;2023-04-23T01:17:01;11.60;87.00
17726;DHT22;8983;53.156;17.960;2023-04-23T01:19:29;11.60;87.20
17726;DHT22;8983;53.156;17.960;2023-04-23T01:21:59;11.60;87.20
17726;DHT22;8983;53.156;17.960;2023-04-23T01:24:30;11.60;87.30
17726;DHT22;8983;53.156;17.960;2023-04-23T01:26:58;11.50;87.40
17726;DHT22;8983;53.156;17.960;2023-04-23T01:29:28;11.50;88.20
17726;DHT22;8983;53.156;17.960;2023-04-23T01:31:57;11.50;87.60
17726;DHT22;8983;53.156;17.960;2023-04-23T01:34:26;11.50;87.90
17726;DHT22;8983;53.156;17.960;2023-04-23T01:36:54;11.40;88.00
17726;DHT22;8983;53.156;17.960;2023-04-23T01:39:22;11.40;88.00
17726;DHT22;8983;53.156;17.960;2023-04-23T01:41:53;11.40;88.10
17726;DHT22;8983;53.156;17.960;2023-04-23T01:44:21;11.40;88.30
17726;DHT22;8983;53.156;17.960;2023-04-23T01:46:49;11.40;88.40
17726;DHT22;8983;53.156;17.960;2023-04-23T01:49:18;11.30;88.50
17726;DHT22;8983;53.156;17.960;2023-04-23T01:51:46;11.30;88.50
17726;DHT22;8983;53.156;17.960;2023-04-23T01:54:14;11.30;88.60
17726;DHT22;8983;53.156;17.960;2023-04-23T01:56:42;11.20;88.50
17726;DHT22;8983;53.156;17.960;2023-04-23T01:59:12;11.20;88.70
17726;DHT22;8983;53.156;17.960;2023-04-23T02:01:41;11.20;89.00
17726;DHT22;8983;53.156;17.960;2023-04-23T02:04:11;11.20;89.20
17726;DHT22;8983;53.156;17.960;2023-04-23T02:06:40;11.20;89.30
17726;DHT22;8983;53.156;17.960;2023-04-23T02:09:08;11.20;89.50
17726;DHT22;8983;53.156;17.960;2023-04-23T02:11:37;11.20;89.50
17726;DHT22;8983;53.156;17.960;2023-04-23T02:14:06;11.10;89.60
17726;DHT22;8983;53.156;17.960;2023-04-23T02:16:35;11.10;89.60
17726;DHT22;8983;53.156;17.960;2023-04-23T02:19:03;11.10;89.90
17726;DHT22;8983;53.156;17.960;2023-04-23T02:21:32;11.10;90.00
17726;DHT22;8983;53.156;17.960;2023-04-23T02:24:00;11.10;90.00
17726;DHT22;8983;53.156;17.960;2023-04-23T02:26:31;11.00;90.00
17726;DHT22;8983;53.156;17.960;2023-04-23T02:28:59;10.90;90.00
17726;DHT22;8983;53.156;17.960;2023-04-23T02:31:27;10.90;90.10
17726;DHT22;8983;53.156;17.960;2023-04-23T02:33:56;10.90;90.10
17726;DHT22;8983;53.156;17.960;2023-04-23T02:36:24;10.90;90.30
17726;DHT22;8983;53.156;17.960;2023-04-23T02:38:54;10.80;90.30
17726;DHT22;8983;53.156;17.960;2023-04-23T02:41:22;10.80;90.50
17726;DHT22;8983;53.156;17.960;2023-04-23T02:43:50;10.80;90.70
17726;DHT22;8983;53.156;17.960;2023-04-23T02:46:18;10.80;90.90
17726;DHT22;8983;53.156;17.960;2023-04-23T02:48:46;10.80;90.90
17726;DHT22;8983;53.156;17.960;2023-04-23T02:51:16;10.80;91.00
17726;DHT22;8983;53.156;17.960;2023-04-23T02:53:44;10.80;91.10
17726;DHT22;8983;53.156;17.960;2023-04-23T02:56:12;10.70;91.10
17726;DHT22;8983;53.156;17.960;2023-04-23T02:58:40;10.70;91.20
17726;DHT22;8983;53.156;17.960;2023-04-23T03:01:08;10.70;91.20
17726;DHT22;8983;53.156;17.960;2023-04-23T03:03:36;10.60;91.30
17726;DHT22;8983;53.156;17.960;2023-04-23T03:06:05;10.60;91.40
17726;DHT22;8983;53.156;17.960;2023-04-23T03:08:35;10.60;91.60
17726;DHT22;8983;53.156;17.960;2023-04-23T03:11:03;10.60;91.60
17726;DHT22;8983;53.156;17.960;2023-04-23T03:13:31;10.60;91.70
17726;DHT22;8983;53.156;17.960;2023-04-23T03:15:59;10.50;91.80
17726;DHT22;8983;53.156;17.960;2023-04-23T03:18:27;10.50;91.90
17726;DHT22;8983;53.156;17.960;2023-04-23T03:20:55;10.50;91.90
17726;DHT22;8983;53.156;17.960;2023-04-23T03:23:23;10.50;92.00
17726;DHT22;8983;53.156;17.960;2023-04-23T03:25:53;10.50;92.10
17726;DHT22;8983;53.156;17.960;2023-04-23T03:28:21;10.50;92.20
17726;DHT22;8983;53.156;17.960;2023-04-23T03:30:49;10.40;92.20
17726;DHT22;8983;53.156;17.960;2023-04-23T03:33:17;10.50;92.30
17726;DHT22;8983;53.156;17.960;2023-04-23T03:35:45;10.50;92.40
17726;DHT22;8983;53.156;17.960;2023-04-23T03:38:14;10.40;92.40
17726;DHT22;8983;53.156;17.960;2023-04-23T03:40:42;10.40;92.50
17726;DHT22;8983;53.156;17.960;2023-04-23T03:43:12;10.40;92.60
17726;DHT22;8983;53.156;17.960;2023-04-23T03:45:40;10.40;92.70
17726;DHT22;8983;53.156;17.960;2023-04-23T03:48:08;10.30;92.70
17726;DHT22;8983;53.156;17.960;2023-04-23T03:50:36;10.30;92.80
17726;DHT22;8983;53.156;17.960;2023-04-23T03:53:06;10.30;92.90
17726;DHT22;8983;53.156;17.960;2023-04-23T03:55:35;10.30;92.90
17726;DHT22;8983;53.156;17.960;2023-04-23T03:58:03;10.30;93.00
17726;DHT22;8983;53.156;17.960;2023-04-23T04:00:33;10.30;93.10
17726;DHT22;8983;53.156;17.960;2023-04-23T04:03:01;10.30;93.20
17726;DHT22;8983;53.156;17.960;2023-04-23T04:05:30;10.30;93.20
17726;DHT22;8983;53.156;17.960;2023-04-23T04:07:58;10.30;93.30
17726;DHT22;8983;53.156;17.960;2023-04-23T04:10:27;10.30;93.30
17726;DHT22;8983;53.156;17.960;2023-04-23T04:12:55;10.30;93.50
17726;DHT22;8983;53.156;17.960;2023-04-23T04:15:23;10.30;93.50
17726;DHT22;8983;53.156;17.960;2023-04-23T04:17:53;10.30;93.70
17726;DHT22;8983;53.156;17.960;2023-04-23T04:20:21;10.30;93.80
17726;DHT22;8983;53.156;17.960;2023-04-23T04:22:49;10.30;94.00
17726;DHT22;8983;53.156;17.960;2023-04-23T04:25:17;10.30;94.00
17726;DHT22;8983;53.156;17.960;2023-04-23T04:27:47;10.30;94.10
17726;DHT22;8983;53.156;17.960;2023-04-23T04:30:15;10.40;94.20
17726;DHT22;8983;53.156;17.960;2023-04-23T04:32:44;10.50;94.30
17726;DHT22;8983;53.156;17.960;2023-04-23T04:35:14;10.50;94.40
17726;DHT22;8983;53.156;17.960;2023-04-23T04:37:42;10.50;94.40
17726;DHT22;8983;53.156;17.960;2023-04-23T04:40:11;10.50;94.50
17726;DHT22;8983;53.156;17.960;2023-04-23T04:42:40;10.50;94.60
17726;DHT22;8983;53.156;17.960;2023-04-23T04:45:09;10.60;94.80
17726;DHT22;8983;53.156;17.960;2023-04-23T04:47:38;10.60;94.90
17726;DHT22;8983;53.156;17.960;2023-04-23T04:50:07;10.70;95.00
17726;DHT22;8983;53.156;17.960;2023-04-23T04:52:37;10.70;95.20
17726;DHT22;8983;53.156;17.960;2023-04-23T04:55:06;10.70;95.20
17726;DHT22;8983;53.156;17.960;2023-04-23T04:57:34;10.70;95.40
17726;DHT22;8983;53.156;17.960;2023-04-23T05:00:19;10.80;95.50
17726;DHT22;8983;53.156;17.960;2023-04-23T05:02:49;10.80;95.70
17726;DHT22;8983;53.156;17.960;2023-04-23T05:05:18;10.80;95.80
17726;DHT22;8983;53.156;17.960;2023-04-23T05:07:48;10.90;95.90
17726;DHT22;8983;53.156;17.960;2023-04-23T05:10:17;10.90;96.10
17726;DHT22;8983;53.156;17.960;2023-04-23T05:12:45;10.90;96.30
17726;DHT22;8983;53.156;17.960;2023-04-23T05:15:13;11.00;96.40
17726;DHT22;8983;53.156;17.960;2023-04-23T05:17:42;11.10;96.60
17726;DHT22;8983;53.156;17.960;2023-04-23T05:20:11;11.10;96.80
17726;DHT22;8983;53.156;17.960;2023-04-23T05:22:40;11.10;97.00
17726;DHT22;8983;53.156;17.960;2023-04-23T05:25:11;11.20;97.10
17726;DHT22;8983;53.156;17.960;2023-04-23T05:27:40;11.20;97.30
17726;DHT22;8983;53.156;17.960;2023-04-23T05:30:09;11.30;97.40
17726;DHT22;8983;53.156;17.960;2023-04-23T05:32:37;11.30;97.60
17726;DHT22;8983;53.156;17.960;2023-04-23T05:35:06;11.40;97.80
17726;DHT22;8983;53.156;17.960;2023-04-23T05:37:35;11.50;98.00
17726;DHT22;8983;53.156;17.960;2023-04-23T05:40:03;11.50;98.10
17726;DHT22;8983;53.156;17.960;2023-04-23T05:42:35;11.50;98.30
17726;DHT22;8983;53.156;17.960;2023-04-23T05:45:04;11.60;98.50
17726;DHT22;8983;53.156;17.960;2023-04-23T05:47:35;11.60;98.70
17726;DHT22;8983;53.156;17.960;2023-04-23T05:50:04;11.70;98.90
17726;DHT22;8983;53.156;17.960;2023-04-23T05:52:32;11.70;99.00
17726;DHT22;8983;53.156;17.960;2023-04-23T05:55:03;11.80;99.10
17726;DHT22;8983;53.156;17.960;2023-04-23T05:57:34;11.80;99.20
17726;DHT22;8983;53.156;17.960;2023-04-23T06:00:03;11.90;99.40
17726;DHT22;8983;53.156;17.960;2023-04-23T06:02:32;12.00;99.50
17726;DHT22;8983;53.156;17.960;2023-04-23T06:05:00;12.00;99.60
17726;DHT22;8983;53.156;17.960;2023-04-23T06:07:29;12.10;99.70
17726;DHT22;8983;53.156;17.960;2023-04-23T06:09:57;12.10;99.90
17726;DHT22;8983;53.156;17.960;2023-04-23T06:12:25;12.20;99.90
17726;DHT22;8983;53.156;17.960;2023-04-23T06:14:54;12.30;99.90
17726;DHT22;8983;53.156;17.960;2023-04-23T06:17:23;12.30;99.90
17726;DHT22;8983;53.156;17.960;2023-04-23T06:19:51;12.40;99.90
17726;DHT22;8983;53.156;17.960;2023-04-23T06:22:20;12.50;99.90
17726;DHT22;8983;53.156;17.960;2023-04-23T06:24:48;12.50;99.90
17726;DHT22;8983;53.156;17.960;2023-04-23T06:27:16;12.60;99.80
17726;DHT22;8983;53.156;17.960;2023-04-23T06:29:44;12.70;99.60
17726;DHT22;8983;53.156;17.960;2023-04-23T06:32:13;12.80;99.40
17726;DHT22;8983;53.156;17.960;2023-04-23T06:34:44;12.90;99.20
17726;DHT22;8983;53.156;17.960;2023-04-23T06:37:26;13.00;98.90
17726;DHT22;8983;53.156;17.960;2023-04-23T06:39:57;13.10;98.80
17726;DHT22;8983;53.156;17.960;2023-04-23T06:42:25;13.10;98.60
17726;DHT22;8983;53.156;17.960;2023-04-23T06:44:53;13.20;98.40
17726;DHT22;8983;53.156;17.960;2023-04-23T06:47:23;13.30;98.30
17726;DHT22;8983;53.156;17.960;2023-04-23T06:49:51;13.30;98.30
17726;DHT22;8983;53.156;17.960;2023-04-23T06:52:19;13.40;98.30
17726;DHT22;8983;53.156;17.960;2023-04-23T06:54:47;13.50;98.20
17726;DHT22;8983;53.156;17.960;2023-04-23T06:57:16;13.50;98.00
17726;DHT22;8983;53.156;17.960;2023-04-23T06:59:44;13.60;98.00
17726;DHT22;8983;53.156;17.960;2023-04-23T07:02:12;13.70;97.90
17726;DHT22;8983;53.156;17.960;2023-04-23T07:04:42;13.80;97.70
17726;DHT22;8983;53.156;17.960;2023-04-23T07:07:11;13.90;97.50
17726;DHT22;8983;53.156;17.960;2023-04-23T07:09:39;14.00;97.10
17726;DHT22;8983;53.156;17.960;2023-04-23T07:12:07;14.10;96.90
17726;DHT22;8983;53.156;17.960;2023-04-23T07:14:35;14.20;96.60
17726;DHT22;8983;53.156;17.960;2023-04-23T07:17:03;14.30;96.40
17726;DHT22;8983;53.156;17.960;2023-04-23T07:19:31;14.40;96.10
17726;DHT22;8983;53.156;17.960;2023-04-23T07:22:01;14.50;96.00
17726;DHT22;8983;53.156;17.960;2023-04-23T07:24:29;14.50;95.90
17726;DHT22;8983;53.156;17.960;2023-04-23T07:26:57;14.60;96.00
17726;DHT22;8983;53.156;17.960;2023-04-23T07:29:25;14.70;95.90
17726;DHT22;8983;53.156;17.960;2023-04-23T07:31:53;14.80;95.60
17726;DHT22;8983;53.156;17.960;2023-04-23T07:34:22;14.90;95.40
17726;DHT22;8983;53.156;17.960;2023-04-23T07:36:50;15.00;95.30
17726;DHT22;8983;53.156;17.960;2023-04-23T07:39:20;15.00;95.20
17726;DHT22;8983;53.156;17.960;2023-04-23T07:41:48;15.10;95.10
17726;DHT22;8983;53.156;17.960;2023-04-23T07:44:16;15.20;95.10
17726;DHT22;8983;53.156;17.960;2023-04-23T07:46:44;15.20;95.00
17726;DHT22;8983;53.156;17.960;2023-04-23T07:49:12;15.30;95.00
17726;DHT22;8983;53.156;17.960;2023-04-23T07:51:41;15.40;94.80
17726;DHT22;8983;53.156;17.960;2023-04-23T07:54:09;15.50;94.70
17726;DHT22;8983;53.156;17.960;2023-04-23T07:56:38;15.50;94.70
17726;DHT22;8983;53.156;17.960;2023-04-23T07:59:09;15.60;94.70
17726;DHT22;8983;53.156;17.960;2023-04-23T08:01:37;15.60;94.70
17726;DHT22;8983;53.156;17.960;2023-04-23T08:04:05;15.70;94.60
17726;DHT22;8983;53.156;17.960;2023-04-23T08:06:34;15.70;94.40
17726;DHT22;8983;53.156;17.960;2023-04-23T08:09:02;15.80;94.30
17726;DHT22;8983;53.156;17.960;2023-04-23T08:11:32;15.90;94.30
17726;DHT22;8983;53.156;17.960;2023-04-23T08:14:01;15.90;93.90
17726;DHT22;8983;53.156;17.960;2023-04-23T08:16:29;16.10;93.60
17726;DHT22;8983;53.156;17.960;2023-04-23T08:18:57;16.10;93.50
17726;DHT22;8983;53.156;17.960;2023-04-23T08:21:29;16.20;93.40
17726;DHT22;8983;53.156;17.960;2023-04-23T08:23:57;16.40;92.80
17726;DHT22;8983;53.156;17.960;2023-04-23T08:26:25;16.60;92.10
17726;DHT22;8983;53.156;17.960;2023-04-23T08:28:53;16.70;91.80
17726;DHT22;8983;53.156;17.960;2023-04-23T08:31:23;16.90;91.60
17726;DHT22;8983;53.156;17.960;2023-04-23T08:33:53;17.00;91.20
17726;DHT22;8983;53.156;17.960;2023-04-23T08:36:21;17.10;90.50
17726;DHT22;8983;53.156;17.960;2023-04-23T08:38:50;17.30;90.00
17726;DHT22;8983;53.156;17.960;2023-04-23T08:41:22;17.50;88.60
17726;DHT22;8983;53.156;17.960;2023-04-23T08:43:52;17.60;87.60
17726;DHT22;8983;53.156;17.960;2023-04-23T08:46:26;17.80;87.10
17726;DHT22;8983;53.156;17.960;2023-04-23T08:48:59;17.80;86.60
17726;DHT22;8983;53.156;17.960;2023-04-23T08:51:29;18.00;84.70
17726;DHT22;8983;53.156;17.960;2023-04-23T08:54:01;18.10;83.70
17726;DHT22;8983;53.156;17.960;2023-04-23T08:56:31;18.20;82.70
17726;DHT22;8983;53.156;17.960;2023-04-23T08:58:59;18.30;82.20
17726;DHT22;8983;53.156;17.960;2023-04-23T09:01:31;18.40;81.10
17726;DHT22;8983;53.156;17.960;2023-04-23T09:03:59;18.50;80.70
17726;DHT22;8983;53.156;17.960;2023-04-23T09:06:28;18.50;80.30
17726;DHT22;8983;53.156;17.960;2023-04-23T09:08:58;18.50;79.80
17726;DHT22;8983;53.156;17.960;2023-04-23T09:11:26;18.60;79.30
17726;DHT22;8983;53.156;17.960;2023-04-23T09:13:56;18.60;79.30
17726;DHT22;8983;53.156;17.960;2023-04-23T09:16:24;18.60;78.80
17726;DHT22;8983;53.156;17.960;2023-04-23T09:18:54;18.80;77.10
17726;DHT22;8983;53.156;17.960;2023-04-23T09:21:23;18.90;75.90
17726;DHT22;8983;53.156;17.960;2023-04-23T09:23:51;19.00;74.40
17726;DHT22;8983;53.156;17.960;2023-04-23T09:26:20;19.10;74.60
17726;DHT22;8983;53.156;17.960;2023-04-23T09:28:49;19.10;74.10
17726;DHT22;8983;53.156;17.960;2023-04-23T09:31:22;19.20;72.90
17726;DHT22;8983;53.156;17.960;2023-04-23T09:33:50;19.30;72.40
17726;DHT22;8983;53.156;17.960;2023-04-23T09:36:22;19.40;71.40
17726;DHT22;8983;53.156;17.960;2023-04-23T09:38:55;19.60;69.40
17726;DHT22;8983;53.156;17.960;2023-04-23T09:41:24;19.60;69.30
17726;DHT22;8983;53.156;17.960;2023-04-23T09:43:53;19.60;68.90
17726;DHT22;8983;53.156;17.960;2023-04-23T09:46:34;19.80;67.40
17726;DHT22;8983;53.156;17.960;2023-04-23T09:49:04;20.00;66.40
17726;DHT22;8983;53.156;17.960;2023-04-23T09:51:36;20.10;66.70
17726;DHT22;8983;53.156;17.960;2023-04-23T09:54:11;20.20;65.30
17726;DHT22;8983;53.156;17.960;2023-04-23T09:56:39;20.30;63.60
17726;DHT22;8983;53.156;17.960;2023-04-23T09:59:21;20.50;62.30
17726;DHT22;8983;53.156;17.960;2023-04-23T10:02:08;20.60;59.10
17726;DHT22;8983;53.156;17.960;2023-04-23T10:04:36;20.70;58.90
17726;DHT22;8983;53.156;17.960;2023-04-23T10:07:07;20.60;58.30
17726;DHT22;8983;53.156;17.960;2023-04-23T10:09:42;20.90;55.90
17726;DHT22;8983;53.156;17.960;2023-04-23T10:12:10;21.00;55.20
17726;DHT22;8983;53.156;17.960;2023-04-23T10:14:43;21.00;55.50
17726;DHT22;8983;53.156;17.960;2023-04-23T10:17:15;20.90;55.90
17726;DHT22;8983;53.156;17.960;2023-04-23T10:19:43;20.90;55.90
17726;DHT22;8983;53.156;17.960;2023-04-23T10:22:15;20.90;56.00
17726;DHT22;8983;53.156;17.960;2023-04-23T10:24:52;21.00;55.30
17726;DHT22;8983;53.156;17.960;2023-04-23T10:27:26;21.00;55.00
17726;DHT22;8983;53.156;17.960;2023-04-23T10:30:14;21.00;54.90
17726;DHT22;8983;53.156;17.960;2023-04-23T10:32:43;21.10;54.90
17726;DHT22;8983;53.156;17.960;2023-04-23T10:35:11;21.10;54.20
17726;DHT22;8983;53.156;17.960;2023-04-23T10:37:41;21.10;54.30
17726;DHT22;8983;53.156;17.960;2023-04-23T10:40:12;21.20;54.60
17726;DHT22;8983;53.156;17.960;2023-04-23T10:42:42;21.20;54.90
17726;DHT22;8983;53.156;17.960;2023-04-23T10:45:15;21.40;54.10
17726;DHT22;8983;53.156;17.960;2023-04-23T10:47:46;21.50;54.20
17726;DHT22;8983;53.156;17.960;2023-04-23T10:50:22;21.50;54.80
17726;DHT22;8983;53.156;17.960;2023-04-23T10:52:52;21.70;55.60
17726;DHT22;8983;53.156;17.960;2023-04-23T10:55:22;22.00;55.50
17726;DHT22;8983;53.156;17.960;2023-04-23T10:57:58;22.50;56.90
17726;DHT22;8983;53.156;17.960;2023-04-23T11:00:29;22.90;54.40
17726;DHT22;8983;53.156;17.960;2023-04-23T11:03:29;23.20;53.60
17726;DHT22;8983;53.156;17.960;2023-04-23T11:06:00;23.60;52.50
17726;DHT22;8983;53.156;17.960;2023-04-23T11:08:30;23.80;51.60
17726;DHT22;8983;53.156;17.960;2023-04-23T11:11:00;24.00;51.10
17726;DHT22;8983;53.156;17.960;2023-04-23T11:13:29;24.20;49.90
17726;DHT22;8983;53.156;17.960;2023-04-23T11:16:13;24.40;49.50
17726;DHT22;8983;53.156;17.960;2023-04-23T11:19:01;24.50;49.30
17726;DHT22;8983;53.156;17.960;2023-04-23T11:21:58;24.60;49.40
17726;DHT22;8983;53.156;17.960;2023-04-23T11:24:30;24.80;49.50
17726;DHT22;8983;53.156;17.960;2023-04-23T11:26:59;24.90;48.70
17726;DHT22;8983;53.156;17.960;2023-04-23T11:29:28;25.00;48.70
17726;DHT22;8983;53.156;17.960;2023-04-23T11:31:56;25.10;49.10
17726;DHT22;8983;53.156;17.960;2023-04-23T11:34:29;25.30;49.30
17726;DHT22;8983;53.156;17.960;2023-04-23T11:36:58;25.50;48.50
17726;DHT22;8983;53.156;17.960;2023-04-23T11:39:28;25.60;48.10
17726;DHT22;8983;53.156;17.960;2023-04-23T11:41:56;25.60;48.30
17726;DHT22;8983;53.156;17.960;2023-04-23T11:44:28;25.80;48.40
17726;DHT22;8983;53.156;17.960;2023-04-23T11:46:59;26.00;48.60
17726;DHT22;8983;53.156;17.960;2023-04-23T11:49:28;26.20;48.40
17726;DHT22;8983;53.156;17.960;2023-04-23T11:51:58;26.30;48.50
17726;DHT22;8983;53.156;17.960;2023-04-23T11:54:29;26.40;48.10
17726;DHT22;8983;53.156;17.960;2023-04-23T11:56:57;26.50;47.80
17726;DHT22;8983;53.156;17.960;2023-04-23T11:59:25;26.50;47.20
17726;DHT22;8983;53.156;17.960;2023-04-23T12:01:55;26.60;46.20
17726;DHT22;8983;53.156;17.960;2023-04-23T12:04:24;26.60;45.60
17726;DHT22;8983;53.156;17.960;2023-04-23T12:06:54;26.60;45.30
17726;DHT22;8983;53.156;17.960;2023-04-23T12:09:23;26.60;45.20
17726;DHT22;8983;53.156;17.960;2023-04-23T12:11:54;26.60;45.40
17726;DHT22;8983;53.156;17.960;2023-04-23T12:14:28;26.70;45.20
17726;DHT22;8983;53.156;17.960;2023-04-23T12:16:58;26.70;44.90
17726;DHT22;8983;53.156;17.960;2023-04-23T12:19:35;26.70;45.00
17726;DHT22;8983;53.156;17.960;2023-04-23T12:22:04;26.90;44.90
17726;DHT22;8983;53.156;17.960;2023-04-23T12:24:45;26.90;45.00
17726;DHT22;8983;53.156;17.960;2023-04-23T12:27:18;27.00;44.90
17726;DHT22;8983;53.156;17.960;2023-04-23T12:29:48;27.00;44.90
17726;DHT22;8983;53.156;17.960;2023-04-23T12:32:25;27.20;44.70
17726;DHT22;8983;53.156;17.960;2023-04-23T12:34:54;27.20;44.40
17726;DHT22;8983;53.156;17.960;2023-04-23T12:37:23;27.20;44.20
17726;DHT22;8983;53.156;17.960;2023-04-23T12:39:53;27.20;44.30
17726;DHT22;8983;53.156;17.960;2023-04-23T12:42:24;27.30;44.60
17726;DHT22;8983;53.156;17.960;2023-04-23T12:44:52;27.50;44.80
17726;DHT22;8983;53.156;17.960;2023-04-23T12:47:21;27.70;44.90
17726;DHT22;8983;53.156;17.960;2023-04-23T12:49:50;27.80;44.70
17726;DHT22;8983;53.156;17.960;2023-04-23T12:52:21;27.90;44.80
17726;DHT22;8983;53.156;17.960;2023-04-23T12:54:49;27.90;44.70
17726;DHT22;8983;53.156;17.960;2023-04-23T12:57:24;27.90;44.80
17726;DHT22;8983;53.156;17.960;2023-04-23T12:59:53;27.80;44.90
17726;DHT22;8983;53.156;17.960;2023-04-23T13:02:23;27.80;45.10
17726;DHT22;8983;53.156;17.960;2023-04-23T13:04:52;27.90;45.00
17726;DHT22;8983;53.156;17.960;2023-04-23T13:07:26;27.80;44.70
17726;DHT22;8983;53.156;17.960;2023-04-23T13:09:54;27.40;44.90
17726;DHT22;8983;53.156;17.960;2023-04-23T13:12:24;27.10;45.40
17726;DHT22;8983;53.156;17.960;2023-04-23T13:14:52;27.00;45.80
17726;DHT22;8983;53.156;17.960;2023-04-23T13:17:20;27.20;46.10
17726;DHT22;8983;53.156;17.960;2023-04-23T13:19:48;27.40;45.90
17726;DHT22;8983;53.156;17.960;2023-04-23T13:22:16;27.10;46.00
17726;DHT22;8983;53.156;17.960;2023-04-23T13:24:45;26.80;46.50
17726;DHT22;8983;53.156;17.960;2023-04-23T13:27:13;26.70;46.90
17726;DHT22;8983;53.156;17.960;2023-04-23T13:29:42;26.70;47.20
17726;DHT22;8983;53.156;17.960;2023-04-23T13:32:10;26.60;47.40
17726;DHT22;8983;53.156;17.960;2023-04-23T13:34:39;26.50;47.60
17726;DHT22;8983;53.156;17.960;2023-04-23T13:37:07;26.50;47.80
17726;DHT22;8983;53.156;17.960;2023-04-23T13:39:35;26.30;48.00
17726;DHT22;8983;53.156;17.960;2023-04-23T13:42:07;26.00;48.30
17726;DHT22;8983;53.156;17.960;2023-04-23T13:44:36;25.70;48.80
17726;DHT22;8983;53.156;17.960;2023-04-23T13:47:05;25.50;49.40
17726;DHT22;8983;53.156;17.960;2023-04-23T13:49:34;25.40;49.80
17726;DHT22;8983;53.156;17.960;2023-04-23T13:52:02;25.40;50.00
17726;DHT22;8983;53.156;17.960;2023-04-23T13:54:33;25.20;50.20
17726;DHT22;8983;53.156;17.960;2023-04-23T13:57:01;25.10;50.60
17726;DHT22;8983;53.156;17.960;2023-04-23T13:59:30;25.00;51.00
17726;DHT22;8983;53.156;17.960;2023-04-23T14:01:58;24.80;51.20
17726;DHT22;8983;53.156;17.960;2023-04-23T14:04:27;24.60;51.60
17726;DHT22;8983;53.156;17.960;2023-04-23T14:06:56;24.50;51.90
17726;DHT22;8983;53.156;17.960;2023-04-23T14:09:24;24.30;52.20
17726;DHT22;8983;53.156;17.960;2023-04-23T14:11:52;24.10;52.40
17726;DHT22;8983;53.156;17.960;2023-04-23T14:14:20;23.90;52.70
17726;DHT22;8983;53.156;17.960;2023-04-23T14:16:48;23.80;53.00
17726;DHT22;8983;53.156;17.960;2023-04-23T14:19:17;23.60;53.30
17726;DHT22;8983;53.156;17.960;2023-04-23T14:21:48;23.60;53.70
17726;DHT22;8983;53.156;17.960;2023-04-23T14:24:20;23.50;54.20
17726;DHT22;8983;53.156;17.960;2023-04-23T14:26:49;23.40;54.70
17726;DHT22;8983;53.156;17.960;2023-04-23T14:29:22;23.30;54.90
17726;DHT22;8983;53.156;17.960;2023-04-23T14:31:51;23.20;54.90
17726;DHT22;8983;53.156;17.960;2023-04-23T14:34:19;23.20;54.90
17726;DHT22;8983;53.156;17.960;2023-04-23T14:36:48;23.20;55.20
17726;DHT22;8983;53.156;17.960;2023-04-23T14:39:20;23.00;55.50
17726;DHT22;8983;53.156;17.960;2023-04-23T14:41:48;22.90;55.80
17726;DHT22;8983;53.156;17.960;2023-04-23T14:44:17;22.80;56.10
17726;DHT22;8983;53.156;17.960;2023-04-23T14:46:45;22.80;56.40
17726;DHT22;8983;53.156;17.960;2023-04-23T14:49:15;22.70;56.90
17726;DHT22;8983;53.156;17.960;2023-04-23T14:51:43;22.70;57.70
17726;DHT22;8983;53.156;17.960;2023-04-23T14:54:13;22.60;58.50
17726;DHT22;8983;53.156;17.960;2023-04-23T14:56:41;22.50;59.30
17726;DHT22;8983;53.156;17.960;2023-04-23T14:59:09;22.40;60.40
17726;DHT22;8983;53.156;17.960;2023-04-23T15:01:37;22.40;61.30
17726;DHT22;8983;53.156;17.960;2023-04-23T15:04:05;22.30;62.00
17726;DHT22;8983;53.156;17.960;2023-04-23T15:06:33;22.20;62.40
17726;DHT22;8983;53.156;17.960;2023-04-23T15:09:02;22.20;63.70
17726;DHT22;8983;53.156;17.960;2023-04-23T15:11:32;22.20;63.40
17726;DHT22;8983;53.156;17.960;2023-04-23T15:14:01;22.20;64.00
17726;DHT22;8983;53.156;17.960;2023-04-23T15:16:34;22.20;64.20
17726;DHT22;8983;53.156;17.960;2023-04-23T15:19:06;22.20;64.70
17726;DHT22;8983;53.156;17.960;2023-04-23T15:21:36;22.10;65.40
17726;DHT22;8983;53.156;17.960;2023-04-23T15:24:04;22.10;66.00
17726;DHT22;8983;53.156;17.960;2023-04-23T15:26:35;22.00;66.80
17726;DHT22;8983;53.156;17.960;2023-04-23T15:29:04;22.00;67.90
17726;DHT22;8983;53.156;17.960;2023-04-23T15:31:34;21.80;68.40
17726;DHT22;8983;53.156;17.960;2023-04-23T15:34:03;21.80;68.90
17726;DHT22;8983;53.156;17.960;2023-04-23T15:36:34;21.80;69.60
17726;DHT22;8983;53.156;17.960;2023-04-23T15:39:03;21.70;70.20
17726;DHT22;8983;53.156;17.960;2023-04-23T15:41:32;21.60;70.80
17726;DHT22;8983;53.156;17.960;2023-04-23T15:44:07;21.50;71.40
17726;DHT22;8983;53.156;17.960;2023-04-23T15:46:37;21.40;72.10